Time;durP1;ratioP1;P1;durP2;ratioP2;P2;SDS_P1;SDS_P2;PMS_P1;PMS_P2;Temp;Humidity;BMP_temperature;BMP_pressure;BME280_temperature;BME280_humidity;BME280_pressure;Samples;Min_cycle;Max_cycle;Signal;HPM_P1;HPM_P2
2024/03/08 00:02:23;;;;;;;52.97;26.33;;;6.70;99.90;;;;;;5023782;28;20041;-77
2024/03/08 00:04:50;;;;;;;50.65;26.52;;;6.60;99.90;;;;;;5020240;28;20026;-79
2024/03/08 00:07:16;;;;;;;53.72;26.55;;;6.60;99.90;;;;;;5002757;28;20069;-78
2024/03/08 00:09:43;;;;;;;49.80;26.75;;;6.70;99.90;;;;;;5025076;28;20128;-77
2024/03/08 00:12:09;;;;;;;46.30;24.80;;;6.70;99.90;;;;;;5002620;28;20037;-77
2024/03/08 00:14:37;;;;;;;44.28;25.02;;;6.60;99.90;;;;;;4999341;28;20100;-79
2024/03/08 00:17:03;;;;;;;47.20;25.08;;;6.60;99.90;;;;;;5021857;28;20123;-77
2024/03/08 00:19:28;;;;;;;44.38;25.02;;;6.50;99.90;;;;;;5023716;28;20712;-76
2024/03/08 00:21:55;;;;;;;41.20;23.40;;;6.60;99.90;;;;;;5020917;28;20041;-77
2024/03/08 00:24:25;;;;;;;40.25;22.50;;;6.50;99.90;;;;;;5022552;28;20022;-78
2024/03/08 00:26:50;;;;;;;42.40;23.77;;;6.40;99.90;;;;;;5018504;28;20021;-77
2024/03/08 00:29:16;;;;;;;38.72;22.73;;;6.30;99.90;;;;;;5019009;28;20539;-76
2024/03/08 00:31:42;;;;;;;39.83;23.38;;;6.40;99.90;;;;;;5023516;28;20025;-77
2024/03/08 00:34:10;;;;;;;40.97;22.85;;;6.40;99.90;;;;;;5022842;28;20022;-80
2024/03/08 00:36:35;;;;;;;41.00;23.85;;;6.40;99.90;;;;;;5020388;28;20041;-77
2024/03/08 00:39:01;;;;;;;38.35;22.20;;;6.40;99.90;;;;;;5021817;28;20104;-77
2024/03/08 00:41:28;;;;;;;38.25;22.10;;;6.50;99.90;;;;;;5002922;28;20445;-78
2024/03/08 00:43:53;;;;;;;43.85;22.33;;;6.50;99.90;;;;;;5021200;28;20021;-79
2024/03/08 00:46:19;;;;;;;41.13;22.02;;;6.50;99.90;;;;;;5022482;28;20033;-76
2024/03/08 00:48:45;;;;;;;37.13;22.35;;;6.40;99.90;;;;;;5023564;28;20017;-76
2024/03/08 00:51:11;;;;;;;38.63;22.98;;;6.30;99.90;;;;;;5018513;28;20465;-77
2024/03/08 00:53:36;;;;;;;40.10;23.83;;;6.20;99.90;;;;;;5020700;28;20433;-81
2024/03/08 00:56:04;;;;;;;34.58;21.75;;;6.20;99.90;;;;;;5019002;28;20086;-80
2024/03/08 00:58:30;;;;;;;37.30;22.30;;;6.20;99.90;;;;;;5020456;28;20144;-78
2024/03/08 01:00:57;;;;;;;41.05;22.33;;;6.20;99.90;;;;;;5022068;28;20104;-80
2024/03/08 01:03:22;;;;;;;39.30;23.27;;;6.20;99.90;;;;;;5019875;28;20018;-79
2024/03/08 01:05:48;;;;;;;36.60;22.35;;;6.10;99.90;;;;;;5020648;28;20377;-77
2024/03/08 01:08:14;;;;;;;39.72;25.92;;;6.20;99.90;;;;;;5022940;28;20029;-77
2024/03/08 01:10:40;;;;;;;37.28;22.75;;;6.20;99.90;;;;;;5021958;28;20069;-78
2024/03/08 01:13:05;;;;;;;38.97;23.35;;;6.20;99.90;;;;;;5018960;28;20095;-81
2024/03/08 01:15:31;;;;;;;35.63;21.90;;;6.20;99.90;;;;;;5017693;28;20430;-79
2024/03/08 01:17:57;;;;;;;34.10;20.90;;;6.10;99.90;;;;;;5019040;28;20152;-77
2024/03/08 01:20:22;;;;;;;36.92;22.90;;;6.10;99.90;;;;;;5005875;28;20025;-78
2024/03/08 01:22:48;;;;;;;36.95;22.63;;;6.20;99.90;;;;;;5020709;28;20501;-80
2024/03/08 01:25:14;;;;;;;34.67;21.02;;;6.00;99.90;;;;;;5021211;28;20112;-80
2024/03/08 01:27:40;;;;;;;40.15;22.77;;;6.10;99.90;;;;;;5019704;28;20030;-79
2024/03/08 01:30:06;;;;;;;39.15;24.15;;;6.20;99.90;;;;;;5022184;28;20030;-78
2024/03/08 01:32:32;;;;;;;39.08;24.67;;;6.10;99.90;;;;;;5017971;28;20041;-77
2024/03/08 01:34:57;;;;;;;40.47;23.48;;;6.10;99.90;;;;;;5022218;28;20029;-81
2024/03/08 01:37:24;;;;;;;37.38;22.75;;;6.10;99.90;;;;;;5002694;28;20037;-79
2024/03/08 01:39:49;;;;;;;34.22;22.70;;;6.10;99.90;;;;;;5017696;28;20035;-77
2024/03/08 01:42:17;;;;;;;37.67;23.70;;;6.00;99.90;;;;;;5023087;28;20033;-77
2024/03/08 01:44:43;;;;;;;39.95;24.08;;;6.00;99.90;;;;;;5019245;28;20374;-78
2024/03/08 01:47:11;;;;;;;36.40;23.65;;;6.10;99.90;;;;;;5017744;28;20026;-77
2024/03/08 01:49:37;;;;;;;35.78;21.85;;;6.10;99.90;;;;;;5018868;28;20021;-77
2024/03/08 01:52:03;;;;;;;36.53;22.92;;;6.10;99.90;;;;;;5017125;28;20061;-76
2024/03/08 01:54:30;;;;;;;36.42;23.10;;;6.00;99.90;;;;;;5018382;28;20040;-77
2024/03/08 01:56:58;;;;;;;44.25;26.65;;;6.00;99.90;;;;;;5016116;28;20057;-77
2024/03/08 01:59:26;;;;;;;35.60;23.27;;;6.00;99.90;;;;;;5005397;28;20383;-77
2024/03/08 02:01:55;;;;;;;47.22;24.17;;;6.00;99.90;;;;;;5015867;28;20042;-77
2024/03/08 02:04:21;;;;;;;38.88;23.95;;;5.90;99.90;;;;;;5017230;28;20032;-77
2024/03/08 02:06:47;;;;;;;36.35;23.92;;;5.90;99.90;;;;;;5028524;28;20034;-77
2024/03/08 02:09:13;;;;;;;34.50;22.35;;;5.90;99.90;;;;;;5031084;28;20035;-78
2024/03/08 02:11:43;;;;;;;34.88;22.88;;;5.90;99.90;;;;;;5014794;28;20457;-77
2024/03/08 02:14:09;;;;;;;34.50;22.08;;;5.90;99.90;;;;;;5032435;28;20116;-76
2024/03/08 02:16:35;;;;;;;38.60;24.23;;;5.80;99.90;;;;;;5032342;28;20017;-76
2024/03/08 02:19:00;;;;;;;34.13;23.05;;;5.80;99.90;;;;;;5032680;28;20088;-77
2024/03/08 02:21:26;;;;;;;38.22;22.88;;;5.80;99.90;;;;;;5032173;28;20444;-77
2024/03/08 02:23:52;;;;;;;41.28;23.52;;;5.70;99.90;;;;;;5032286;28;20055;-76
2024/03/08 02:26:18;;;;;;;39.05;23.95;;;5.70;99.90;;;;;;5032393;28;20021;-76
2024/03/08 02:28:45;;;;;;;38.42;23.48;;;5.70;99.90;;;;;;5031942;28;20076;-77
2024/03/08 02:31:11;;;;;;;38.05;23.23;;;5.70;99.90;;;;;;5032478;28;20108;-77
2024/03/08 02:33:37;;;;;;;36.95;23.10;;;5.60;99.90;;;;;;5032303;28;20057;-77
2024/03/08 02:36:04;;;;;;;36.92;23.17;;;5.50;99.90;;;;;;5031806;28;20065;-76
2024/03/08 02:38:29;;;;;;;40.33;24.25;;;5.60;99.90;;;;;;5032021;28;20525;-77
2024/03/08 02:40:55;;;;;;;35.47;23.02;;;5.60;99.90;;;;;;5032118;28;20029;-77
2024/03/08 02:43:22;;;;;;;37.50;22.50;;;5.50;99.90;;;;;;5032140;28;20100;-76
2024/03/08 02:45:48;;;;;;;39.55;23.55;;;5.40;99.90;;;;;;5031844;28;20044;-79
2024/03/08 02:48:14;;;;;;;38.85;22.80;;;5.20;99.90;;;;;;5031827;28;20017;-78
2024/03/08 02:50:42;;;;;;;37.95;22.90;;;5.30;99.90;;;;;;5031643;28;20037;-78
2024/03/08 02:53:08;;;;;;;40.67;23.92;;;5.30;99.90;;;;;;5031907;28;20537;-78
2024/03/08 02:55:37;;;;;;;40.33;23.92;;;5.20;99.90;;;;;;5031897;28;20101;-78
2024/03/08 02:58:04;;;;;;;36.40;22.48;;;5.20;99.90;;;;;;5031536;28;20025;-78
2024/03/08 03:00:30;;;;;;;41.33;24.08;;;5.20;99.90;;;;;;5032033;28;20108;-78
2024/03/08 03:02:59;;;;;;;39.53;24.10;;;5.10;99.90;;;;;;5031267;28;20037;-78
2024/03/08 03:05:25;;;;;;;46.00;25.15;;;5.10;99.90;;;;;;5031650;28;20026;-78
2024/03/08 03:07:51;;;;;;;37.13;24.33;;;5.00;99.90;;;;;;5031928;28;20030;-78
2024/03/08 03:10:17;;;;;;;41.42;24.75;;;5.00;99.90;;;;;;5031525;28;20018;-78
2024/03/08 03:12:45;;;;;;;43.42;23.63;;;5.00;99.90;;;;;;5031820;28;20030;-79
2024/03/08 03:15:11;;;;;;;39.65;24.88;;;5.10;99.90;;;;;;5031609;28;20025;-79
2024/03/08 03:17:37;;;;;;;38.22;24.20;;;5.00;99.90;;;;;;5031656;28;20029;-79
2024/03/08 03:20:13;;;;;;;37.22;23.75;;;5.00;99.90;;;;;;5031715;28;20025;-78
2024/03/08 03:22:40;;;;;;;40.03;24.08;;;5.00;99.90;;;;;;5031733;28;20224;-79
2024/03/08 03:25:07;;;;;;;38.83;24.60;;;5.00;99.90;;;;;;5031757;28;20021;-79
2024/03/08 03:27:33;;;;;;;43.13;24.27;;;5.00;99.90;;;;;;5031798;28;20032;-79
2024/03/08 03:30:19;;;;;;;39.10;23.75;;;5.00;99.90;;;;;;5035269;28;20088;-79
2024/03/08 03:32:46;;;;;;;46.05;24.20;;;4.90;99.90;;;;;;5035380;28;20033;-79
2024/03/08 03:35:16;;;;;;;39.83;24.30;;;4.90;99.90;;;;;;5035395;28;20025;-79
2024/03/08 03:37:51;;;;;;;40.50;24.05;;;4.90;99.90;;;;;;5035220;28;20025;-79
2024/03/08 03:40:19;;;;;;;40.47;24.58;;;5.00;99.90;;;;;;5035306;28;20021;-78
2024/03/08 03:42:45;;;;;;;43.10;26.08;;;5.10;99.90;;;;;;5035270;28;20051;-79
2024/03/08 03:45:11;;;;;;;43.80;24.20;;;5.10;99.90;;;;;;5035543;28;20101;-78
2024/03/08 03:47:38;;;;;;;45.60;25.75;;;5.10;99.90;;;;;;5035122;28;20452;-78
2024/03/08 03:50:05;;;;;;;40.88;25.05;;;5.00;99.90;;;;;;5035129;28;20101;-78
2024/03/08 03:52:31;;;;;;;47.00;24.17;;;4.90;99.90;;;;;;5035108;28;20036;-79
2024/03/08 03:54:57;;;;;;;41.33;24.15;;;4.90;99.90;;;;;;5035312;28;20025;-79
2024/03/08 03:57:23;;;;;;;38.97;23.60;;;4.90;99.90;;;;;;5034947;28;20108;-79
2024/03/08 03:59:50;;;;;;;40.08;23.02;;;4.90;99.90;;;;;;5035013;28;20104;-78
2024/03/08 04:02:17;;;;;;;41.40;25.45;;;4.80;99.90;;;;;;5034687;28;20056;-78
2024/03/08 04:04:44;;;;;;;40.95;23.70;;;4.80;99.90;;;;;;5034970;28;20029;-78
2024/03/08 04:07:10;;;;;;;43.78;24.13;;;4.80;99.90;;;;;;5034865;28;20461;-78
2024/03/08 04:09:36;;;;;;;42.22;24.83;;;4.90;99.90;;;;;;5034845;28;20017;-77
2024/03/08 04:12:02;;;;;;;42.20;23.85;;;4.90;99.90;;;;;;5034660;28;20371;-79
2024/03/08 04:14:28;;;;;;;37.33;22.88;;;5.00;99.90;;;;;;5034776;28;20045;-79
2024/03/08 04:16:53;;;;;;;42.53;25.50;;;5.00;99.90;;;;;;5034891;28;20551;-79
2024/03/08 04:19:19;;;;;;;41.05;25.60;;;5.00;99.90;;;;;;5034435;28;20389;-79
2024/03/08 04:21:45;;;;;;;43.03;24.92;;;4.90;99.90;;;;;;5034776;28;20037;-79
2024/03/08 04:24:10;;;;;;;41.97;24.85;;;5.00;99.90;;;;;;5034096;28;20378;-78
2024/03/08 04:26:36;;;;;;;42.08;25.27;;;4.90;99.90;;;;;;5034250;28;20048;-78
2024/03/08 04:29:02;;;;;;;46.13;25.42;;;4.90;99.90;;;;;;5032294;28;20041;-78
2024/03/08 04:31:30;;;;;;;40.63;24.13;;;4.90;99.90;;;;;;5013474;28;20022;-78
2024/03/08 04:33:56;;;;;;;39.97;26.63;;;4.90;99.90;;;;;;5028291;28;20363;-79
2024/03/08 04:36:23;;;;;;;43.30;24.05;;;4.80;99.90;;;;;;5028171;28;20036;-79
2024/03/08 04:38:49;;;;;;;41.45;23.75;;;4.80;99.90;;;;;;5021540;28;20026;-78
2024/03/08 04:41:14;;;;;;;42.78;24.33;;;4.70;99.90;;;;;;5033574;28;20049;-78
2024/03/08 04:43:40;;;;;;;37.90;24.50;;;4.70;99.90;;;;;;5034283;28;20051;-79
2024/03/08 04:46:06;;;;;;;43.10;26.45;;;4.60;99.90;;;;;;5033850;28;20052;-79
2024/03/08 04:48:31;;;;;;;43.17;26.50;;;4.50;99.90;;;;;;5033792;28;20033;-78
2024/03/08 04:50:57;;;;;;;46.17;25.75;;;4.50;99.90;;;;;;5034121;28;20065;-78
2024/03/08 04:53:23;;;;;;;40.38;23.98;;;4.60;99.90;;;;;;5033506;28;20079;-79
2024/03/08 04:55:49;;;;;;;44.05;24.35;;;4.40;99.90;;;;;;5034212;28;20021;-78
2024/03/08 04:58:15;;;;;;;44.42;26.05;;;4.40;99.90;;;;;;5033457;28;20046;-78
2024/03/08 05:00:41;;;;;;;44.90;26.17;;;4.50;99.90;;;;;;5033629;28;20033;-79
2024/03/08 05:03:06;;;;;;;42.45;24.70;;;4.40;99.90;;;;;;5026237;28;20029;-79
2024/03/08 05:05:33;;;;;;;48.28;25.27;;;4.40;99.90;;;;;;5026426;28;20025;-78
2024/03/08 05:07:58;;;;;;;41.95;24.38;;;4.40;99.90;;;;;;5033249;28;20084;-79
2024/03/08 05:10:24;;;;;;;48.63;25.63;;;4.40;99.90;;;;;;5033814;28;20021;-78
2024/03/08 05:12:50;;;;;;;43.30;25.42;;;4.40;99.90;;;;;;5033739;28;20053;-79
2024/03/08 05:15:16;;;;;;;46.20;27.10;;;4.40;99.90;;;;;;5033469;28;20033;-79
2024/03/08 05:17:41;;;;;;;46.20;26.45;;;4.40;99.90;;;;;;5027402;28;20094;-79
2024/03/08 05:20:10;;;;;;;47.47;25.92;;;4.40;99.90;;;;;;5023568;28;20475;-79
2024/03/08 05:22:36;;;;;;;41.50;26.42;;;4.40;99.90;;;;;;5026954;28;20540;-78
2024/03/08 05:25:02;;;;;;;49.05;26.20;;;4.30;99.90;;;;;;5033571;28;20022;-78
2024/03/08 05:27:28;;;;;;;47.80;27.85;;;4.30;99.90;;;;;;5032991;28;20455;-78
2024/03/08 05:29:54;;;;;;;47.20;26.55;;;4.30;99.90;;;;;;5033090;28;20505;-78
2024/03/08 05:32:20;;;;;;;43.30;25.55;;;4.30;99.90;;;;;;5033282;28;20057;-79
2024/03/08 05:34:45;;;;;;;45.28;26.27;;;4.20;99.90;;;;;;5033388;28;20026;-78
2024/03/08 05:37:11;;;;;;;49.20;26.58;;;4.30;99.90;;;;;;5033060;28;20036;-78
2024/03/08 05:39:36;;;;;;;45.95;27.10;;;4.20;99.90;;;;;;5032949;28;20021;-77
2024/03/08 05:42:02;;;;;;;48.67;25.80;;;4.20;99.90;;;;;;5033116;28;20530;-78
2024/03/08 05:44:31;;;;;;;49.67;25.77;;;4.10;99.90;;;;;;5032886;28;20018;-78
2024/03/08 05:46:57;;;;;;;43.45;24.45;;;4.20;99.90;;;;;;5033185;28;20378;-78
2024/03/08 05:49:24;;;;;;;47.45;25.40;;;4.10;99.90;;;;;;5032947;28;20025;-78
2024/03/08 05:51:51;;;;;;;45.83;26.40;;;4.10;99.90;;;;;;5032454;28;20026;-78
2024/03/08 05:54:17;;;;;;;48.17;27.23;;;4.00;99.90;;;;;;5033057;28;20063;-78
2024/03/08 05:56:43;;;;;;;51.15;28.38;;;4.10;99.90;;;;;;5032859;28;20025;-78
2024/03/08 05:59:10;;;;;;;47.40;26.58;;;4.00;99.90;;;;;;5014832;28;20036;-78
2024/03/08 06:01:36;;;;;;;45.40;25.48;;;4.10;99.90;;;;;;5025979;28;20080;-78
2024/03/08 06:04:03;;;;;;;47.30;25.67;;;4.10;99.90;;;;;;5026249;28;20033;-78
2024/03/08 06:06:29;;;;;;;45.25;27.27;;;4.00;99.90;;;;;;5032618;28;20025;-78
2024/03/08 06:08:58;;;;;;;42.05;24.90;;;4.00;99.90;;;;;;5032686;28;20026;-79
2024/03/08 06:11:26;;;;;;;49.40;28.25;;;4.10;99.90;;;;;;5032454;28;20100;-78
2024/03/08 06:13:59;;;;;;;50.65;28.35;;;4.10;99.90;;;;;;5032754;28;20032;-78
2024/03/08 06:16:28;;;;;;;45.45;26.17;;;4.10;99.90;;;;;;5032270;28;20088;-78
2024/03/08 06:18:58;;;;;;;46.03;26.17;;;4.10;99.90;;;;;;5032629;28;20033;-78
2024/03/08 06:21:26;;;;;;;48.90;27.40;;;4.20;99.90;;;;;;5032210;28;20029;-78
2024/03/08 06:23:54;;;;;;;44.67;25.85;;;4.20;99.90;;;;;;5032527;28;20022;-78
2024/03/08 06:26:21;;;;;;;45.88;25.80;;;4.20;99.90;;;;;;5031858;28;20029;-78
2024/03/08 06:28:47;;;;;;;45.75;25.88;;;4.10;99.90;;;;;;5031853;28;20482;-78
2024/03/08 06:31:14;;;;;;;47.88;26.55;;;4.20;99.90;;;;;;5032148;28;20021;-78
2024/03/08 06:33:40;;;;;;;50.08;28.88;;;4.20;99.90;;;;;;5032283;28;20482;-78
2024/03/08 06:36:07;;;;;;;50.95;26.85;;;4.20;99.90;;;;;;5031661;28;20066;-78
2024/03/08 06:38:32;;;;;;;49.88;27.60;;;4.20;99.90;;;;;;5032189;28;20383;-78
2024/03/08 06:40:58;;;;;;;45.40;26.25;;;4.20;99.90;;;;;;5031898;28;20484;-78
2024/03/08 06:43:32;;;;;;;47.90;26.85;;;4.10;99.90;;;;;;5031996;28;20033;-78
2024/03/08 06:45:58;;;;;;;47.22;25.73;;;4.10;99.90;;;;;;5031783;28;20021;-78
2024/03/08 06:48:23;;;;;;;45.83;25.98;;;4.10;99.90;;;;;;5032115;28;20112;-78
2024/03/08 06:50:49;;;;;;;45.35;24.08;;;4.00;99.90;;;;;;5031809;28;20028;-78
2024/03/08 06:53:18;;;;;;;47.35;26.58;;;4.10;99.90;;;;;;5032141;28;20102;-78
2024/03/08 06:55:44;;;;;;;49.58;27.98;;;4.00;99.90;;;;;;5032097;28;20049;-78
2024/03/08 06:58:10;;;;;;;50.50;27.02;;;4.00;99.90;;;;;;5031544;28;20060;-78
2024/03/08 07:00:38;;;;;;;47.65;26.58;;;4.00;99.90;;;;;;5031338;28;20489;-77
2024/03/08 07:03:07;;;;;;;47.40;26.80;;;4.10;99.90;;;;;;5033096;28;20099;-78
2024/03/08 07:05:32;;;;;;;48.17;26.08;;;4.10;99.90;;;;;;5035964;28;20097;-78
2024/03/08 07:07:58;;;;;;;46.22;25.60;;;4.20;99.90;;;;;;5035137;28;20113;-77
2024/03/08 07:10:25;;;;;;;48.22;25.40;;;4.10;99.90;;;;;;5036104;28;20075;-78
2024/03/08 07:12:53;;;;;;;47.17;27.58;;;4.10;99.90;;;;;;5035356;28;20032;-78
2024/03/08 07:15:19;;;;;;;49.50;28.20;;;4.10;99.90;;;;;;5035907;28;20036;-78
2024/03/08 07:17:46;;;;;;;47.95;26.63;;;4.20;99.90;;;;;;5028868;28;20033;-78
2024/03/08 07:20:13;;;;;;;47.30;25.50;;;4.30;99.90;;;;;;5027837;28;20133;-77
2024/03/08 07:22:39;;;;;;;45.80;26.02;;;4.20;99.90;;;;;;5034006;28;20398;-77
2024/03/08 07:25:21;;;;;;;43.28;25.13;;;4.40;99.90;;;;;;5028593;28;20022;-77
2024/03/08 07:27:53;;;;;;;42.90;25.50;;;4.40;99.90;;;;;;5035158;28;20470;-77
2024/03/08 07:33:11;;;;;;;44.83;25.65;;;4.60;99.90;;;;;;5027939;28;20043;-78
2024/03/08 07:35:37;;;;;;;45.85;26.05;;;4.60;99.90;;;;;;5035219;28;20076;-78
2024/03/08 07:38:12;;;;;;;44.95;25.40;;;4.60;99.90;;;;;;5017247;28;20482;-77
2024/03/08 07:40:40;;;;;;;44.67;25.63;;;4.60;99.90;;;;;;5030784;28;20076;-77
2024/03/08 07:43:10;;;;;;;44.00;25.38;;;4.70;99.90;;;;;;5034628;28;20030;-77
2024/03/08 07:45:37;;;;;;;48.00;25.65;;;4.60;99.90;;;;;;5032501;28;20025;-78
2024/03/08 07:48:03;;;;;;;42.05;24.40;;;4.60;99.90;;;;;;5035128;28;20021;-76
2024/03/08 07:50:29;;;;;;;43.58;25.98;;;4.80;99.90;;;;;;5031612;28;20021;-76
2024/03/08 07:52:54;;;;;;;48.03;27.77;;;4.90;99.90;;;;;;5012068;28;20550;-76
2024/03/08 07:55:24;;;;;;;45.33;27.15;;;5.00;99.90;;;;;;5029431;28;20512;-77
2024/03/08 07:57:49;;;;;;;47.72;25.48;;;5.00;99.90;;;;;;5029708;28;20030;-77
2024/03/08 08:00:18;;;;;;;42.00;25.70;;;5.00;99.90;;;;;;5028293;28;20493;-77
2024/03/08 08:02:46;;;;;;;45.92;25.98;;;5.10;99.90;;;;;;5031069;28;20045;-77
2024/03/08 08:05:13;;;;;;;44.97;27.20;;;5.10;99.90;;;;;;5034274;28;20105;-78
2024/03/08 08:07:41;;;;;;;42.58;23.27;;;5.30;99.90;;;;;;5034812;28;20025;-78
2024/03/08 08:10:07;;;;;;;40.35;22.88;;;5.40;99.90;;;;;;5016744;28;20017;-76
2024/03/08 08:12:34;;;;;;;43.75;22.63;;;5.40;99.90;;;;;;5017174;28;20036;-77
2024/03/08 08:15:00;;;;;;;45.45;23.88;;;5.50;99.90;;;;;;5034315;28;20525;-77
2024/03/08 08:17:26;;;;;;;37.88;22.25;;;5.50;99.90;;;;;;5034247;28;20031;-76
2024/03/08 08:19:52;;;;;;;42.65;22.52;;;5.50;99.90;;;;;;5034526;28;20097;-76
2024/03/08 08:22:18;;;;;;;42.47;24.15;;;5.60;99.90;;;;;;5034632;28;20385;-78
2024/03/08 08:24:46;;;;;;;43.05;23.38;;;5.70;99.90;;;;;;5028059;28;20033;-76
2024/03/08 08:27:12;;;;;;;39.78;22.60;;;5.80;99.90;;;;;;5016461;28;20398;-76
2024/03/08 08:29:38;;;;;;;39.08;21.92;;;6.00;99.90;;;;;;5034702;28;20021;-77
2024/03/08 08:32:04;;;;;;;43.78;22.75;;;6.10;99.90;;;;;;5016091;28;20037;-78
2024/03/08 08:34:31;;;;;;;38.53;22.25;;;6.30;99.90;;;;;;5034373;28;20029;-78
2024/03/08 08:36:56;;;;;;;38.60;22.48;;;6.20;99.90;;;;;;5033550;28;20030;-77
2024/03/08 08:39:22;;;;;;;40.17;22.80;;;6.30;99.90;;;;;;5033857;28;20051;-78
2024/03/08 08:41:48;;;;;;;35.00;20.50;;;6.40;99.90;;;;;;5034018;28;20038;-78
2024/03/08 08:44:15;;;;;;;37.80;21.63;;;6.50;99.90;;;;;;5033816;28;20379;-79
2024/03/08 08:46:40;;;;;;;40.22;22.65;;;6.40;99.90;;;;;;5033757;28;20021;-78
2024/03/08 08:49:10;;;;;;;44.65;24.55;;;6.60;99.90;;;;;;5033401;28;20029;-78
2024/03/08 08:51:36;;;;;;;38.97;22.30;;;6.80;99.90;;;;;;5027884;28;20109;-78
2024/03/08 08:54:02;;;;;;;38.00;22.85;;;6.90;99.90;;;;;;5030556;28;20101;-80
2024/03/08 08:56:31;;;;;;;40.53;23.27;;;6.90;99.90;;;;;;5033985;28;20104;-81
2024/03/08 08:58:57;;;;;;;36.72;21.67;;;7.10;99.90;;;;;;5032539;28;20108;-81
2024/03/08 09:01:23;;;;;;;38.30;22.05;;;7.20;99.90;;;;;;5026248;28;20361;-81
2024/03/08 09:03:50;;;;;;;37.30;22.02;;;7.40;99.90;;;;;;5029755;28;20422;-80
2024/03/08 09:06:16;;;;;;;39.03;22.85;;;7.40;99.90;;;;;;5033835;28;20045;-84
2024/03/08 09:08:43;;;;;;;38.35;22.02;;;7.40;99.90;;;;;;5033302;28;20028;-81
2024/03/08 09:11:10;;;;;;;36.25;21.00;;;7.60;99.90;;;;;;5033681;28;20017;-80
2024/03/08 09:13:36;;;;;;;36.40;21.70;;;7.60;99.90;;;;;;5027349;28;20075;-80
2024/03/08 09:16:05;;;;;;;33.97;21.33;;;7.80;99.90;;;;;;5031903;28;20390;-83
2024/03/08 09:18:32;;;;;;;40.42;21.48;;;8.00;99.90;;;;;;5026512;28;20025;-83
2024/03/08 09:20:59;;;;;;;36.88;22.90;;;8.10;99.90;;;;;;5030031;28;20102;-85
2024/03/08 09:23:25;;;;;;;33.92;21.23;;;8.20;99.90;;;;;;5028214;28;20025;-80
2024/03/08 09:25:51;;;;;;;40.28;21.50;;;8.30;99.90;;;;;;5032478;28;20025;-83
2024/03/08 09:28:17;;;;;;;33.40;22.00;;;8.40;99.90;;;;;;5033248;28;20033;-80
2024/03/08 09:30:44;;;;;;;35.50;19.98;;;8.70;99.90;;;;;;5033526;28;20021;-80
2024/03/08 09:33:10;;;;;;;33.25;20.00;;;8.60;99.90;;;;;;5033066;28;20095;-82
2024/03/08 09:35:35;;;;;;;33.53;19.88;;;8.60;99.90;;;;;;5033325;28;20474;-81
2024/03/08 09:38:01;;;;;;;34.20;19.23;;;8.70;99.90;;;;;;5032598;28;20108;-85
2024/03/08 09:40:27;;;;;;;34.47;18.98;;;8.70;99.90;;;;;;5014669;28;20406;-81
2024/03/08 09:42:53;;;;;;;32.00;19.00;;;8.80;99.90;;;;;;5031289;28;20026;-82
2024/03/08 09:45:24;;;;;;;31.83;19.45;;;8.90;99.90;;;;;;5033170;28;20032;-79
2024/03/08 09:47:50;;;;;;;32.83;18.85;;;8.90;99.90;;;;;;5031754;28;20108;-87
2024/03/08 09:50:17;;;;;;;31.02;18.55;;;9.00;99.90;;;;;;5022843;28;20030;-81
2024/03/08 09:52:47;;;;;;;29.55;17.65;;;9.20;99.90;;;;;;5014951;28;20386;-74
2024/03/08 09:55:13;;;;;;;26.80;16.90;;;9.30;99.90;;;;;;5033084;28;20025;-75
2024/03/08 09:57:40;;;;;;;31.70;17.65;;;9.30;99.90;;;;;;5030541;28;20065;-77
2024/03/08 10:00:24;;;;;;;28.15;16.67;;;9.50;99.90;;;;;;5024304;28;20021;-79
2024/03/08 10:02:52;;;;;;;28.23;16.98;;;9.50;99.90;;;;;;5032785;28;20374;-79
2024/03/08 10:05:18;;;;;;;27.42;16.95;;;9.70;99.90;;;;;;5013350;28;20108;-78
2024/03/08 10:07:44;;;;;;;28.90;15.45;;;9.80;99.90;;;;;;5025440;28;20109;-79
2024/03/08 10:10:12;;;;;;;31.05;16.67;;;9.80;99.90;;;;;;5032613;28;20026;-78
2024/03/08 10:12:41;;;;;;;28.48;16.15;;;9.70;99.90;;;;;;5015833;28;20025;-77
2024/03/08 10:15:08;;;;;;;27.25;16.48;;;9.90;99.90;;;;;;5031379;28;20180;-79
2024/03/08 10:17:36;;;;;;;24.77;16.23;;;9.90;99.90;;;;;;5032569;28;20112;-79
2024/03/08 10:20:03;;;;;;;29.92;17.63;;;10.00;99.90;;;;;;5014221;28;20032;-78
2024/03/08 10:22:30;;;;;;;31.48;17.67;;;10.00;99.90;;;;;;5032333;28;20029;-79
2024/03/08 10:24:56;;;;;;;27.40;16.20;;;10.20;99.90;;;;;;5032229;28;20079;-78
2024/03/08 10:27:21;;;;;;;28.05;16.90;;;10.10;99.90;;;;;;5032029;28;20112;-78
2024/03/08 10:29:48;;;;;;;29.52;17.77;;;10.20;99.90;;;;;;5032686;28;20455;-80
2024/03/08 10:32:14;;;;;;;24.52;16.05;;;10.10;99.90;;;;;;5030864;28;20021;-79
2024/03/08 10:34:41;;;;;;;29.90;16.88;;;10.10;99.90;;;;;;5007651;28;20079;-80
2024/03/08 10:37:13;;;;;;;26.45;16.92;;;9.90;99.90;;;;;;5000682;28;20040;-79
2024/03/08 10:39:47;;;;;;;27.65;17.15;;;10.10;99.90;;;;;;5016497;28;20018;-81
2024/03/08 10:42:18;;;;;;;28.08;17.13;;;10.30;99.90;;;;;;5016342;28;20044;-76
2024/03/08 10:44:54;;;;;;;27.98;16.75;;;10.50;99.90;;;;;;5019742;28;20021;-77
2024/03/08 10:47:31;;;;;;;24.88;15.88;;;10.60;99.90;;;;;;5015466;28;20037;-76
2024/03/08 10:50:03;;;;;;;26.55;15.82;;;10.70;99.90;;;;;;5016152;28;20489;-78
2024/03/08 10:52:29;;;;;;;;;;;10.50;99.90;;;;;;5015398;28;20029;-75
2024/03/08 10:54:57;;;;;;;28.98;16.42;;;10.50;99.90;;;;;;5020690;28;19916;-78
2024/03/08 10:57:23;;;;;;;24.10;15.60;;;10.60;99.90;;;;;;5015962;28;20026;-77
2024/03/08 10:59:50;;;;;;;24.05;15.27;;;10.70;99.90;;;;;;5020142;28;20021;-75
2024/03/08 11:02:18;;;;;;;25.98;15.07;;;10.90;99.90;;;;;;5018425;28;20478;-78
2024/03/08 11:04:49;;;;;;;27.60;15.93;;;10.80;99.90;;;;;;5014218;28;20027;-76
2024/03/08 11:07:19;;;;;;;21.80;14.30;;;10.80;99.90;;;;;;5019587;28;20018;-76
2024/03/08 11:09:48;;;;;;;24.35;15.10;;;11.10;99.90;;;;;;5015929;28;20490;-78
2024/03/08 11:12:32;;;;;;;26.10;15.15;;;10.90;99.90;;;;;;5017087;28;20045;-82
2024/03/08 11:15:11;;;;;;;26.27;14.65;;;11.00;99.90;;;;;;5017369;28;20028;-77
2024/03/08 11:17:40;;;;;;;24.45;15.52;;;11.00;99.90;;;;;;5018926;28;20021;-77
2024/03/08 11:20:20;;;;;;;24.48;15.23;;;10.80;99.90;;;;;;4998422;28;20029;-76
2024/03/08 11:23:03;;;;;;;23.67;16.10;;;11.00;99.90;;;;;;4997902;28;20453;-78
2024/03/08 11:25:32;;;;;;;27.33;16.40;;;11.10;99.90;;;;;;5014694;28;20033;-76
2024/03/08 11:28:23;;;;;;;25.00;15.95;;;11.20;99.90;;;;;;5018327;28;20026;-77
2024/03/08 11:31:01;;;;;;;24.27;15.90;;;11.30;99.90;;;;;;5009943;28;20048;-77
2024/03/08 11:33:30;;;;;;;23.63;15.20;;;11.30;99.90;;;;;;5018461;28;20061;-80
2024/03/08 11:36:16;;;;;;;24.98;14.93;;;11.30;99.90;;;;;;5015650;28;20045;-78
2024/03/08 11:38:43;;;;;;;24.65;14.20;;;11.20;99.90;;;;;;5017665;28;20033;-78
2024/03/08 11:41:14;;;;;;;24.05;15.70;;;11.20;99.90;;;;;;5020840;28;20033;-76
2024/03/08 11:43:41;;;;;;;24.00;14.98;;;11.50;99.90;;;;;;5018009;28;20033;-76
2024/03/08 11:46:14;;;;;;;23.08;14.27;;;11.40;99.90;;;;;;5020162;28;20018;-78
2024/03/08 11:48:43;;;;;;;22.27;14.50;;;11.50;99.90;;;;;;5019394;28;20044;-79
2024/03/08 11:51:13;;;;;;;21.67;14.20;;;11.40;99.90;;;;;;5022918;28;20084;-77
2024/03/08 11:53:40;;;;;;;26.40;14.85;;;11.40;99.90;;;;;;5024581;28;20029;-77
2024/03/08 11:56:13;;;;;;;21.48;13.65;;;11.70;99.90;;;;;;5019677;28;20010;-76
2024/03/08 11:58:40;;;;;;;24.50;14.30;;;11.60;99.90;;;;;;5018840;28;20058;-78
2024/03/08 12:01:13;;;;;;;25.23;14.07;;;11.60;99.90;;;;;;5024216;28;20026;-78
2024/03/08 12:03:42;;;;;;;21.70;13.50;;;11.70;99.90;;;;;;5020046;28;20033;-77
2024/03/08 12:06:09;;;;;;;24.92;13.98;;;11.80;99.90;;;;;;5022303;28;20022;-78
2024/03/08 12:08:37;;;;;;;21.40;14.80;;;11.60;99.90;;;;;;5019716;28;20053;-77
2024/03/08 12:11:07;;;;;;;23.08;14.15;;;11.50;99.90;;;;;;5019881;28;20026;-77
2024/03/08 12:13:34;;;;;;;21.00;14.15;;;11.70;99.90;;;;;;5022359;28;20022;-77
2024/03/08 12:16:05;;;;;;;19.88;14.13;;;11.80;99.90;;;;;;5021333;28;20045;-77
2024/03/08 12:18:35;;;;;;;21.38;14.07;;;11.80;99.90;;;;;;5023584;28;20037;-77
2024/03/08 12:21:08;;;;;;;23.90;14.75;;;11.90;99.90;;;;;;5024683;28;20032;-78
2024/03/08 12:23:35;;;;;;;19.08;12.88;;;11.70;99.90;;;;;;5024628;28;20095;-77
2024/03/08 12:26:15;;;;;;;25.40;15.43;;;11.90;99.90;;;;;;5019944;28;20489;-77
2024/03/08 12:28:44;;;;;;;21.15;14.57;;;12.00;99.90;;;;;;5025304;28;20393;-75
2024/03/08 12:31:12;;;;;;;21.38;14.23;;;12.10;99.90;;;;;;5024345;28;20060;-77
2024/03/08 12:33:50;;;;;;;22.75;14.85;;;12.00;99.90;;;;;;5020969;28;20032;-78
2024/03/08 12:36:17;;;;;;;21.98;14.25;;;12.00;99.90;;;;;;5022360;28;20025;-78
2024/03/08 12:38:49;;;;;;;29.42;15.43;;;12.00;99.90;;;;;;5019687;28;20038;-75
2024/03/08 12:41:19;;;;;;;23.80;13.93;;;12.00;99.90;;;;;;5021591;28;20736;-76